METAR Data
IDs: Format: Raw Decoded Include TAF

Data at: 1951 UTC 02 Oct 2022

METAR for:KEDU (Davis/University Arp, CA, US)
Text:KEDU 021935Z AUTO 35003KT 10SM CLR 23/13 A2997 RMK AO1
Temperature: 23.0°C ( 73°F)
Dewpoint: 13.0°C ( 55°F) [RH = 53%]
Pressure (altimeter):29.97 inches Hg (1015.0 mb)
Winds:from the N (350 degrees) at 3 MPH (3 knots; 1.5 m/s)
Visibility:10 or more sm (16+ km)
Ceiling:at least 12,000 feet AGL
Clouds:sky clear below 12,000 feet AGL
QC Flag:automated observation with no human augmentation
Text:KEDU 021915Z AUTO 25003KT 10SM CLR 22/13 A2998 RMK AO1
Temperature: 22.0°C ( 72°F)
Dewpoint: 13.0°C ( 55°F) [RH = 57%]
Pressure (altimeter):29.98 inches Hg (1015.3 mb)
Winds:from the WSW (250 degrees) at 3 MPH (3 knots; 1.5 m/s)
Visibility:10 or more sm (16+ km)
Ceiling:at least 12,000 feet AGL
Clouds:sky clear below 12,000 feet AGL
QC Flag:automated observation with no human augmentation
Text:KEDU 021855Z AUTO 36005KT 10SM CLR 22/13 A2998 RMK AO1
Temperature: 22.0°C ( 72°F)
Dewpoint: 13.0°C ( 55°F) [RH = 57%]
Pressure (altimeter):29.98 inches Hg (1015.3 mb)
Winds:from the N (360 degrees) at 6 MPH (5 knots; 2.6 m/s)
Visibility:10 or more sm (16+ km)
Ceiling:at least 12,000 feet AGL
Clouds:sky clear below 12,000 feet AGL
QC Flag:automated observation with no human augmentation
Text:KEDU 021835Z AUTO 29004KT 10SM CLR 21/13 A2998 RMK AO1
Temperature: 21.0°C ( 70°F)
Dewpoint: 13.0°C ( 55°F) [RH = 60%]
Pressure (altimeter):29.98 inches Hg (1015.3 mb)
Winds:from the WNW (290 degrees) at 5 MPH (4 knots; 2.1 m/s)
Visibility:10 or more sm (16+ km)
Ceiling:at least 12,000 feet AGL
Clouds:sky clear below 12,000 feet AGL
QC Flag:automated observation with no human augmentation
Text:KEDU 021815Z AUTO 31004KT 10SM CLR 20/12 A2999 RMK AO1
Temperature: 20.0°C ( 68°F)
Dewpoint: 12.0°C ( 54°F) [RH = 60%]
Pressure (altimeter):29.99 inches Hg (1015.7 mb)
Winds:from the NW (310 degrees) at 5 MPH (4 knots; 2.1 m/s)
Visibility:10 or more sm (16+ km)
Ceiling:at least 12,000 feet AGL
Clouds:sky clear below 12,000 feet AGL
QC Flag:automated observation with no human augmentation
Text:KEDU 021755Z AUTO 30003KT 10SM CLR 20/12 A2999 RMK AO1
Temperature: 20.0°C ( 68°F)
Dewpoint: 12.0°C ( 54°F) [RH = 60%]
Pressure (altimeter):29.99 inches Hg (1015.7 mb)
Winds:from the WNW (300 degrees) at 3 MPH (3 knots; 1.5 m/s)
Visibility:10 or more sm (16+ km)
Ceiling:at least 12,000 feet AGL
Clouds:sky clear below 12,000 feet AGL
QC Flag:automated observation with no human augmentation
Text:KEDU 021735Z AUTO 24003KT 10SM CLR 19/12 A2998 RMK AO1
Temperature: 19.0°C ( 66°F)
Dewpoint: 12.0°C ( 54°F) [RH = 64%]
Pressure (altimeter):29.98 inches Hg (1015.3 mb)
Winds:from the WSW (240 degrees) at 3 MPH (3 knots; 1.5 m/s)
Visibility:10 or more sm (16+ km)
Ceiling:at least 12,000 feet AGL
Clouds:sky clear below 12,000 feet AGL
QC Flag:automated observation with no human augmentation
Text:KEDU 021715Z AUTO 27003KT 10SM CLR 18/12 A2998 RMK AO1
Temperature: 18.0°C ( 64°F)
Dewpoint: 12.0°C ( 54°F) [RH = 68%]
Pressure (altimeter):29.98 inches Hg (1015.3 mb)
Winds:from the W (270 degrees) at 3 MPH (3 knots; 1.5 m/s)
Visibility:10 or more sm (16+ km)
Ceiling:at least 12,000 feet AGL
Clouds:sky clear below 12,000 feet AGL
QC Flag:automated observation with no human augmentation
Text:KEDU 021655Z AUTO 27004KT 10SM CLR 17/12 A2998 RMK AO1
Temperature: 17.0°C ( 63°F)
Dewpoint: 12.0°C ( 54°F) [RH = 72%]
Pressure (altimeter):29.98 inches Hg (1015.3 mb)
Winds:from the W (270 degrees) at 5 MPH (4 knots; 2.1 m/s)
Visibility:10 or more sm (16+ km)
Ceiling:at least 12,000 feet AGL
Clouds:sky clear below 12,000 feet AGL
QC Flag:automated observation with no human augmentation
Text:KEDU 021635Z AUTO 32004KT 10SM CLR 17/13 A2997 RMK AO1
Temperature: 17.0°C ( 63°F)
Dewpoint: 13.0°C ( 55°F) [RH = 77%]
Pressure (altimeter):29.97 inches Hg (1015.0 mb)
Winds:from the NW (320 degrees) at 5 MPH (4 knots; 2.1 m/s)
Visibility:10 or more sm (16+ km)
Ceiling:at least 12,000 feet AGL
Clouds:sky clear below 12,000 feet AGL
QC Flag:automated observation with no human augmentation
Text:KEDU 021615Z AUTO 31004KT 10SM CLR 15/12 A2997 RMK AO1
Temperature: 15.0°C ( 59°F)
Dewpoint: 12.0°C ( 54°F) [RH = 82%]
Pressure (altimeter):29.97 inches Hg (1015.0 mb)
Winds:from the NW (310 degrees) at 5 MPH (4 knots; 2.1 m/s)
Visibility:10 or more sm (16+ km)
Ceiling:at least 12,000 feet AGL
Clouds:sky clear below 12,000 feet AGL
QC Flag:automated observation with no human augmentation
Text:KEDU 021555Z AUTO 29004KT 10SM CLR 15/12 A2996 RMK AO1
Temperature: 15.0°C ( 59°F)
Dewpoint: 12.0°C ( 54°F) [RH = 82%]
Pressure (altimeter):29.96 inches Hg (1014.6 mb)
Winds:from the WNW (290 degrees) at 5 MPH (4 knots; 2.1 m/s)
Visibility:10 or more sm (16+ km)
Ceiling:at least 12,000 feet AGL
Clouds:sky clear below 12,000 feet AGL
QC Flag:automated observation with no human augmentation
Text:KEDU 021535Z AUTO 30003KT 10SM CLR 14/12 A2996 RMK AO1
Temperature: 14.0°C ( 57°F)
Dewpoint: 12.0°C ( 54°F) [RH = 88%]
Pressure (altimeter):29.96 inches Hg (1014.6 mb)
Winds:from the WNW (300 degrees) at 3 MPH (3 knots; 1.5 m/s)
Visibility:10 or more sm (16+ km)
Ceiling:at least 12,000 feet AGL
Clouds:sky clear below 12,000 feet AGL
QC Flag:automated observation with no human augmentation
Text:KEDU 021515Z AUTO 29003KT 10SM CLR 14/12 A2995 RMK AO1
Temperature: 14.0°C ( 57°F)
Dewpoint: 12.0°C ( 54°F) [RH = 88%]
Pressure (altimeter):29.95 inches Hg (1014.3 mb)
Winds:from the WNW (290 degrees) at 3 MPH (3 knots; 1.5 m/s)
Visibility:10 or more sm (16+ km)
Ceiling:at least 12,000 feet AGL
Clouds:sky clear below 12,000 feet AGL
QC Flag:automated observation with no human augmentation
Text:KEDU 021455Z AUTO 00000KT 10SM CLR 12/11 A2994 RMK AO1
Temperature: 12.0°C ( 54°F)
Dewpoint: 11.0°C ( 52°F) [RH = 94%]
Pressure (altimeter):29.94 inches Hg (1014.0 mb)
Winds:calm
Visibility:10 or more sm (16+ km)
Ceiling:at least 12,000 feet AGL
Clouds:sky clear below 12,000 feet AGL
QC Flag:automated observation with no human augmentation
Text:KEDU 021435Z AUTO 00000KT 10SM CLR 12/10 A2993 RMK AO1
Temperature: 12.0°C ( 54°F)
Dewpoint: 10.0°C ( 50°F) [RH = 88%]
Pressure (altimeter):29.93 inches Hg (1013.6 mb)
Winds:calm
Visibility:10 or more sm (16+ km)
Ceiling:at least 12,000 feet AGL
Clouds:sky clear below 12,000 feet AGL
QC Flag:automated observation with no human augmentation
Text:KEDU 021415Z AUTO 00000KT 10SM CLR 11/10 A2992 RMK AO1
Temperature: 11.0°C ( 52°F)
Dewpoint: 10.0°C ( 50°F) [RH = 94%]
Pressure (altimeter):29.92 inches Hg (1013.3 mb)
Winds:calm
Visibility:10 or more sm (16+ km)
Ceiling:at least 12,000 feet AGL
Clouds:sky clear below 12,000 feet AGL
QC Flag:automated observation with no human augmentation
Text:KEDU 021355Z AUTO 23003KT 10SM CLR 11/10 A2991 RMK AO1
Temperature: 11.0°C ( 52°F)
Dewpoint: 10.0°C ( 50°F) [RH = 94%]
Pressure (altimeter):29.91 inches Hg (1013.0 mb)
Winds:from the SW (230 degrees) at 3 MPH (3 knots; 1.5 m/s)
Visibility:10 or more sm (16+ km)
Ceiling:at least 12,000 feet AGL
Clouds:sky clear below 12,000 feet AGL
QC Flag:automated observation with no human augmentation
Text:KEDU 021335Z AUTO 00000KT 10SM CLR 12/10 A2990 RMK AO1
Temperature: 12.0°C ( 54°F)
Dewpoint: 10.0°C ( 50°F) [RH = 88%]
Pressure (altimeter):29.90 inches Hg (1012.6 mb)
Winds:calm
Visibility:10 or more sm (16+ km)
Ceiling:at least 12,000 feet AGL
Clouds:sky clear below 12,000 feet AGL
QC Flag:automated observation with no human augmentation
Text:KEDU 021315Z AUTO 00000KT 10SM CLR 12/10 A2989 RMK AO1
Temperature: 12.0°C ( 54°F)
Dewpoint: 10.0°C ( 50°F) [RH = 88%]
Pressure (altimeter):29.89 inches Hg (1012.3 mb)
Winds:calm
Visibility:10 or more sm (16+ km)
Ceiling:at least 12,000 feet AGL
Clouds:sky clear below 12,000 feet AGL
QC Flag:automated observation with no human augmentation
Text:KEDU 021255Z AUTO 00000KT 10SM CLR 12/10 A2989 RMK AO1
Temperature: 12.0°C ( 54°F)
Dewpoint: 10.0°C ( 50°F) [RH = 88%]
Pressure (altimeter):29.89 inches Hg (1012.3 mb)
Winds:calm
Visibility:10 or more sm (16+ km)
Ceiling:at least 12,000 feet AGL
Clouds:sky clear below 12,000 feet AGL
QC Flag:automated observation with no human augmentation
Text:KEDU 021235Z AUTO 00000KT 10SM CLR 12/10 A2988 RMK AO1
Temperature: 12.0°C ( 54°F)
Dewpoint: 10.0°C ( 50°F) [RH = 88%]
Pressure (altimeter):29.88 inches Hg (1011.9 mb)
Winds:calm
Visibility:10 or more sm (16+ km)
Ceiling:at least 12,000 feet AGL
Clouds:sky clear below 12,000 feet AGL
QC Flag:automated observation with no human augmentation
Text:KEDU 021215Z AUTO 00000KT 10SM CLR 12/10 A2987 RMK AO1
Temperature: 12.0°C ( 54°F)
Dewpoint: 10.0°C ( 50°F) [RH = 88%]
Pressure (altimeter):29.87 inches Hg (1011.6 mb)
Winds:calm
Visibility:10 or more sm (16+ km)
Ceiling:at least 12,000 feet AGL
Clouds:sky clear below 12,000 feet AGL
QC Flag:automated observation with no human augmentation
Text:KEDU 021155Z AUTO 00000KT 10SM CLR 13/11 A2987 RMK AO1
Temperature: 13.0°C ( 55°F)
Dewpoint: 11.0°C ( 52°F) [RH = 88%]
Pressure (altimeter):29.87 inches Hg (1011.6 mb)
Winds:calm
Visibility:10 or more sm (16+ km)
Ceiling:at least 12,000 feet AGL
Clouds:sky clear below 12,000 feet AGL
QC Flag:automated observation with no human augmentation
Text:KEDU 021135Z AUTO 00000KT 10SM CLR 13/10 A2986 RMK AO1
Temperature: 13.0°C ( 55°F)
Dewpoint: 10.0°C ( 50°F) [RH = 82%]
Pressure (altimeter):29.86 inches Hg (1011.3 mb)
Winds:calm
Visibility:10 or more sm (16+ km)
Ceiling:at least 12,000 feet AGL
Clouds:sky clear below 12,000 feet AGL
QC Flag:automated observation with no human augmentation
Text:KEDU 021115Z AUTO 25003KT 10SM CLR 13/10 A2986 RMK AO1
Temperature: 13.0°C ( 55°F)
Dewpoint: 10.0°C ( 50°F) [RH = 82%]
Pressure (altimeter):29.86 inches Hg (1011.3 mb)
Winds:from the WSW (250 degrees) at 3 MPH (3 knots; 1.5 m/s)
Visibility:10 or more sm (16+ km)
Ceiling:at least 12,000 feet AGL
Clouds:sky clear below 12,000 feet AGL
QC Flag:automated observation with no human augmentation
Text:KEDU 021055Z AUTO 23003KT 10SM CLR 13/10 A2985 RMK AO1
Temperature: 13.0°C ( 55°F)
Dewpoint: 10.0°C ( 50°F) [RH = 82%]
Pressure (altimeter):29.85 inches Hg (1010.9 mb)
Winds:from the SW (230 degrees) at 3 MPH (3 knots; 1.5 m/s)
Visibility:10 or more sm (16+ km)
Ceiling:at least 12,000 feet AGL
Clouds:sky clear below 12,000 feet AGL
QC Flag:automated observation with no human augmentation
Text:KEDU 021035Z AUTO 00000KT 10SM CLR 14/11 A2985 RMK AO1
Temperature: 14.0°C ( 57°F)
Dewpoint: 11.0°C ( 52°F) [RH = 82%]
Pressure (altimeter):29.85 inches Hg (1010.9 mb)
Winds:calm
Visibility:10 or more sm (16+ km)
Ceiling:at least 12,000 feet AGL
Clouds:sky clear below 12,000 feet AGL
QC Flag:automated observation with no human augmentation
Text:KEDU 021015Z AUTO 22004KT 10SM CLR 14/11 A2985 RMK AO1
Temperature: 14.0°C ( 57°F)
Dewpoint: 11.0°C ( 52°F) [RH = 82%]
Pressure (altimeter):29.85 inches Hg (1010.9 mb)
Winds:from the SW (220 degrees) at 5 MPH (4 knots; 2.1 m/s)
Visibility:10 or more sm (16+ km)
Ceiling:at least 12,000 feet AGL
Clouds:sky clear below 12,000 feet AGL
QC Flag:automated observation with no human augmentation
Text:KEDU 020955Z AUTO 22005KT 10SM CLR 14/11 A2984 RMK AO1
Temperature: 14.0°C ( 57°F)
Dewpoint: 11.0°C ( 52°F) [RH = 82%]
Pressure (altimeter):29.84 inches Hg (1010.6 mb)
Winds:from the SW (220 degrees) at 6 MPH (5 knots; 2.6 m/s)
Visibility:10 or more sm (16+ km)
Ceiling:at least 12,000 feet AGL
Clouds:sky clear below 12,000 feet AGL
QC Flag:automated observation with no human augmentation
Text:KEDU 020935Z AUTO 22005KT 10SM CLR 14/11 A2984 RMK AO1
Temperature: 14.0°C ( 57°F)
Dewpoint: 11.0°C ( 52°F) [RH = 82%]
Pressure (altimeter):29.84 inches Hg (1010.6 mb)
Winds:from the SW (220 degrees) at 6 MPH (5 knots; 2.6 m/s)
Visibility:10 or more sm (16+ km)
Ceiling:at least 12,000 feet AGL
Clouds:sky clear below 12,000 feet AGL
QC Flag:automated observation with no human augmentation
Text:KEDU 020915Z AUTO 21005KT 10SM CLR 14/11 A2983 RMK AO1
Temperature: 14.0°C ( 57°F)
Dewpoint: 11.0°C ( 52°F) [RH = 82%]
Pressure (altimeter):29.83 inches Hg (1010.2 mb)
Winds:from the SSW (210 degrees) at 6 MPH (5 knots; 2.6 m/s)
Visibility:10 or more sm (16+ km)
Ceiling:at least 12,000 feet AGL
Clouds:sky clear below 12,000 feet AGL
QC Flag:automated observation with no human augmentation
Text:KEDU 020855Z AUTO 20007KT 10SM CLR 15/11 A2983 RMK AO1
Temperature: 15.0°C ( 59°F)
Dewpoint: 11.0°C ( 52°F) [RH = 77%]
Pressure (altimeter):29.83 inches Hg (1010.2 mb)
Winds:from the SSW (200 degrees) at 8 MPH (7 knots; 3.6 m/s)
Visibility:10 or more sm (16+ km)
Ceiling:at least 12,000 feet AGL
Clouds:sky clear below 12,000 feet AGL
QC Flag:automated observation with no human augmentation
Text:KEDU 020835Z AUTO 20006KT 10SM CLR 15/11 A2983 RMK AO1
Temperature: 15.0°C ( 59°F)
Dewpoint: 11.0°C ( 52°F) [RH = 77%]
Pressure (altimeter):29.83 inches Hg (1010.2 mb)
Winds:from the SSW (200 degrees) at 7 MPH (6 knots; 3.1 m/s)
Visibility:10 or more sm (16+ km)
Ceiling:at least 12,000 feet AGL
Clouds:sky clear below 12,000 feet AGL
QC Flag:automated observation with no human augmentation
Text:KEDU 020815Z AUTO 20007KT 10SM CLR 15/11 A2983 RMK AO1
Temperature: 15.0°C ( 59°F)
Dewpoint: 11.0°C ( 52°F) [RH = 77%]
Pressure (altimeter):29.83 inches Hg (1010.2 mb)
Winds:from the SSW (200 degrees) at 8 MPH (7 knots; 3.6 m/s)
Visibility:10 or more sm (16+ km)
Ceiling:at least 12,000 feet AGL
Clouds:sky clear below 12,000 feet AGL
QC Flag:automated observation with no human augmentation
Text:KEDU 020755Z AUTO 20005KT 10SM CLR 15/11 A2983 RMK AO1
Temperature: 15.0°C ( 59°F)
Dewpoint: 11.0°C ( 52°F) [RH = 77%]
Pressure (altimeter):29.83 inches Hg (1010.2 mb)
Winds:from the SSW (200 degrees) at 6 MPH (5 knots; 2.6 m/s)
Visibility:10 or more sm (16+ km)
Ceiling:at least 12,000 feet AGL
Clouds:sky clear below 12,000 feet AGL
QC Flag:automated observation with no human augmentation
Text:KEDU 020735Z AUTO 21005KT 10SM CLR 15/12 A2982 RMK AO1
Temperature: 15.0°C ( 59°F)
Dewpoint: 12.0°C ( 54°F) [RH = 82%]
Pressure (altimeter):29.82 inches Hg (1009.9 mb)
Winds:from the SSW (210 degrees) at 6 MPH (5 knots; 2.6 m/s)
Visibility:10 or more sm (16+ km)
Ceiling:at least 12,000 feet AGL
Clouds:sky clear below 12,000 feet AGL
QC Flag:automated observation with no human augmentation
Text:KEDU 020715Z AUTO 20006KT 10SM CLR 15/12 A2982 RMK AO1
Temperature: 15.0°C ( 59°F)
Dewpoint: 12.0°C ( 54°F) [RH = 82%]
Pressure (altimeter):29.82 inches Hg (1009.9 mb)
Winds:from the SSW (200 degrees) at 7 MPH (6 knots; 3.1 m/s)
Visibility:10 or more sm (16+ km)
Ceiling:at least 12,000 feet AGL
Clouds:sky clear below 12,000 feet AGL
QC Flag:automated observation with no human augmentation
Text:KEDU 020655Z AUTO 20005KT 10SM CLR 15/12 A2982 RMK AO1
Temperature: 15.0°C ( 59°F)
Dewpoint: 12.0°C ( 54°F) [RH = 82%]
Pressure (altimeter):29.82 inches Hg (1009.9 mb)
Winds:from the SSW (200 degrees) at 6 MPH (5 knots; 2.6 m/s)
Visibility:10 or more sm (16+ km)
Ceiling:at least 12,000 feet AGL
Clouds:sky clear below 12,000 feet AGL
QC Flag:automated observation with no human augmentation
Text:KEDU 020635Z AUTO 20005KT 10SM CLR 15/12 A2982 RMK AO1
Temperature: 15.0°C ( 59°F)
Dewpoint: 12.0°C ( 54°F) [RH = 82%]
Pressure (altimeter):29.82 inches Hg (1009.9 mb)
Winds:from the SSW (200 degrees) at 6 MPH (5 knots; 2.6 m/s)
Visibility:10 or more sm (16+ km)
Ceiling:at least 12,000 feet AGL
Clouds:sky clear below 12,000 feet AGL
QC Flag:automated observation with no human augmentation
Text:KEDU 020615Z AUTO 20005KT 10SM CLR 16/12 A2982 RMK AO1
Temperature: 16.0°C ( 61°F)
Dewpoint: 12.0°C ( 54°F) [RH = 77%]
Pressure (altimeter):29.82 inches Hg (1009.9 mb)
Winds:from the SSW (200 degrees) at 6 MPH (5 knots; 2.6 m/s)
Visibility:10 or more sm (16+ km)
Ceiling:at least 12,000 feet AGL
Clouds:sky clear below 12,000 feet AGL
QC Flag:automated observation with no human augmentation
Text:KEDU 020555Z AUTO 20005KT 10SM CLR 16/12 A2982 RMK AO1
Temperature: 16.0°C ( 61°F)
Dewpoint: 12.0°C ( 54°F) [RH = 77%]
Pressure (altimeter):29.82 inches Hg (1009.9 mb)
Winds:from the SSW (200 degrees) at 6 MPH (5 knots; 2.6 m/s)
Visibility:10 or more sm (16+ km)
Ceiling:at least 12,000 feet AGL
Clouds:sky clear below 12,000 feet AGL
QC Flag:automated observation with no human augmentation
Text:KEDU 020535Z AUTO 21006KT 10SM CLR 17/12 A2982 RMK AO1
Temperature: 17.0°C ( 63°F)
Dewpoint: 12.0°C ( 54°F) [RH = 72%]
Pressure (altimeter):29.82 inches Hg (1009.9 mb)
Winds:from the SSW (210 degrees) at 7 MPH (6 knots; 3.1 m/s)
Visibility:10 or more sm (16+ km)
Ceiling:at least 12,000 feet AGL
Clouds:sky clear below 12,000 feet AGL
QC Flag:automated observation with no human augmentation
Text:KEDU 020515Z AUTO 20006KT 10SM CLR 17/12 A2981 RMK AO1
Temperature: 17.0°C ( 63°F)
Dewpoint: 12.0°C ( 54°F) [RH = 72%]
Pressure (altimeter):29.81 inches Hg (1009.6 mb)
Winds:from the SSW (200 degrees) at 7 MPH (6 knots; 3.1 m/s)
Visibility:10 or more sm (16+ km)
Ceiling:at least 12,000 feet AGL
Clouds:sky clear below 12,000 feet AGL
QC Flag:automated observation with no human augmentation
Text:KEDU 020455Z AUTO 19005KT 10SM CLR 17/12 A2981 RMK AO1
Temperature: 17.0°C ( 63°F)
Dewpoint: 12.0°C ( 54°F) [RH = 72%]
Pressure (altimeter):29.81 inches Hg (1009.6 mb)
Winds:from the S (190 degrees) at 6 MPH (5 knots; 2.6 m/s)
Visibility:10 or more sm (16+ km)
Ceiling:at least 12,000 feet AGL
Clouds:sky clear below 12,000 feet AGL
QC Flag:automated observation with no human augmentation
Text:KEDU 020435Z AUTO 19005KT 10SM CLR 17/12 A2981 RMK AO1
Temperature: 17.0°C ( 63°F)
Dewpoint: 12.0°C ( 54°F) [RH = 72%]
Pressure (altimeter):29.81 inches Hg (1009.6 mb)
Winds:from the S (190 degrees) at 6 MPH (5 knots; 2.6 m/s)
Visibility:10 or more sm (16+ km)
Ceiling:at least 12,000 feet AGL
Clouds:sky clear below 12,000 feet AGL
QC Flag:automated observation with no human augmentation
Text:KEDU 020415Z AUTO 20005KT 10SM CLR 17/12 A2980 RMK AO1
Temperature: 17.0°C ( 63°F)
Dewpoint: 12.0°C ( 54°F) [RH = 72%]
Pressure (altimeter):29.80 inches Hg (1009.2 mb)
Winds:from the SSW (200 degrees) at 6 MPH (5 knots; 2.6 m/s)
Visibility:10 or more sm (16+ km)
Ceiling:at least 12,000 feet AGL
Clouds:sky clear below 12,000 feet AGL
QC Flag:automated observation with no human augmentation
Text:KEDU 020355Z AUTO 21005KT 10SM CLR 18/12 A2979 RMK AO1
Temperature: 18.0°C ( 64°F)
Dewpoint: 12.0°C ( 54°F) [RH = 68%]
Pressure (altimeter):29.79 inches Hg (1008.9 mb)
Winds:from the SSW (210 degrees) at 6 MPH (5 knots; 2.6 m/s)
Visibility:10 or more sm (16+ km)
Ceiling:at least 12,000 feet AGL
Clouds:sky clear below 12,000 feet AGL
QC Flag:automated observation with no human augmentation
Text:KEDU 020335Z AUTO 21006KT 10SM CLR 18/12 A2979 RMK AO1
Temperature: 18.0°C ( 64°F)
Dewpoint: 12.0°C ( 54°F) [RH = 68%]
Pressure (altimeter):29.79 inches Hg (1008.9 mb)
Winds:from the SSW (210 degrees) at 7 MPH (6 knots; 3.1 m/s)
Visibility:10 or more sm (16+ km)
Ceiling:at least 12,000 feet AGL
Clouds:sky clear below 12,000 feet AGL
QC Flag:automated observation with no human augmentation
Text:KEDU 020315Z AUTO 21008KT 10SM CLR 19/12 A2978 RMK AO1
Temperature: 19.0°C ( 66°F)
Dewpoint: 12.0°C ( 54°F) [RH = 64%]
Pressure (altimeter):29.78 inches Hg (1008.5 mb)
Winds:from the SSW (210 degrees) at 9 MPH (8 knots; 4.1 m/s)
Visibility:10 or more sm (16+ km)
Ceiling:at least 12,000 feet AGL
Clouds:sky clear below 12,000 feet AGL
QC Flag:automated observation with no human augmentation
Text:KEDU 020255Z AUTO 21008KT 10SM CLR 19/12 A2978 RMK AO1
Temperature: 19.0°C ( 66°F)
Dewpoint: 12.0°C ( 54°F) [RH = 64%]
Pressure (altimeter):29.78 inches Hg (1008.5 mb)
Winds:from the SSW (210 degrees) at 9 MPH (8 knots; 4.1 m/s)
Visibility:10 or more sm (16+ km)
Ceiling:at least 12,000 feet AGL
Clouds:sky clear below 12,000 feet AGL
QC Flag:automated observation with no human augmentation
Text:KEDU 020235Z AUTO 21007KT 10SM CLR 20/13 A2978 RMK AO1
Temperature: 20.0°C ( 68°F)
Dewpoint: 13.0°C ( 55°F) [RH = 64%]
Pressure (altimeter):29.78 inches Hg (1008.5 mb)
Winds:from the SSW (210 degrees) at 8 MPH (7 knots; 3.6 m/s)
Visibility:10 or more sm (16+ km)
Ceiling:at least 12,000 feet AGL
Clouds:sky clear below 12,000 feet AGL
QC Flag:automated observation with no human augmentation
Text:KEDU 020215Z AUTO 21006KT 10SM CLR 20/13 A2977 RMK AO1
Temperature: 20.0°C ( 68°F)
Dewpoint: 13.0°C ( 55°F) [RH = 64%]
Pressure (altimeter):29.77 inches Hg (1008.2 mb)
Winds:from the SSW (210 degrees) at 7 MPH (6 knots; 3.1 m/s)
Visibility:10 or more sm (16+ km)
Ceiling:at least 12,000 feet AGL
Clouds:sky clear below 12,000 feet AGL
QC Flag:automated observation with no human augmentation
Text:KEDU 020155Z AUTO 20007KT 10SM CLR 21/13 A2977 RMK AO1
Temperature: 21.0°C ( 70°F)
Dewpoint: 13.0°C ( 55°F) [RH = 60%]
Pressure (altimeter):29.77 inches Hg (1008.2 mb)
Winds:from the SSW (200 degrees) at 8 MPH (7 knots; 3.6 m/s)
Visibility:10 or more sm (16+ km)
Ceiling:at least 12,000 feet AGL
Clouds:sky clear below 12,000 feet AGL
QC Flag:automated observation with no human augmentation
Text:KEDU 020135Z AUTO 20008KT 10SM CLR 22/13 A2976 RMK AO1
Temperature: 22.0°C ( 72°F)
Dewpoint: 13.0°C ( 55°F) [RH = 57%]
Pressure (altimeter):29.76 inches Hg (1007.9 mb)
Winds:from the SSW (200 degrees) at 9 MPH (8 knots; 4.1 m/s)
Visibility:10 or more sm (16+ km)
Ceiling:at least 12,000 feet AGL
Clouds:sky clear below 12,000 feet AGL
QC Flag:automated observation with no human augmentation
Text:KEDU 020115Z AUTO 20010G14KT 10SM CLR 24/13 A2976 RMK AO1
Temperature: 24.0°C ( 75°F)
Dewpoint: 13.0°C ( 55°F) [RH = 50%]
Pressure (altimeter):29.76 inches Hg (1007.9 mb)
Winds:from the SSW (200 degrees) at 12 MPH (10 knots; 5.1 m/s) gusting to 16 MPH (14 knots; 7.2 m/s)
Visibility:10 or more sm (16+ km)
Ceiling:at least 12,000 feet AGL
Clouds:sky clear below 12,000 feet AGL
QC Flag:automated observation with no human augmentation
Text:KEDU 020055Z AUTO 19008KT 10SM CLR 25/14 A2976 RMK AO1
Temperature: 25.0°C ( 77°F)
Dewpoint: 14.0°C ( 57°F) [RH = 50%]
Pressure (altimeter):29.76 inches Hg (1007.9 mb)
Winds:from the S (190 degrees) at 9 MPH (8 knots; 4.1 m/s)
Visibility:10 or more sm (16+ km)
Ceiling:at least 12,000 feet AGL
Clouds:sky clear below 12,000 feet AGL
QC Flag:automated observation with no human augmentation
Text:KEDU 020035Z AUTO 19008KT 10SM CLR 26/14 A2976 RMK AO1
Temperature: 26.0°C ( 79°F)
Dewpoint: 14.0°C ( 57°F) [RH = 48%]
Pressure (altimeter):29.76 inches Hg (1007.9 mb)
Winds:from the S (190 degrees) at 9 MPH (8 knots; 4.1 m/s)
Visibility:10 or more sm (16+ km)
Ceiling:at least 12,000 feet AGL
Clouds:sky clear below 12,000 feet AGL
QC Flag:automated observation with no human augmentation
Text:KEDU 020015Z AUTO 18007KT 10SM CLR 27/13 A2976 RMK AO1
Temperature: 27.0°C ( 81°F)
Dewpoint: 13.0°C ( 55°F) [RH = 42%]
Pressure (altimeter):29.76 inches Hg (1007.9 mb)
Winds:from the S (180 degrees) at 8 MPH (7 knots; 3.6 m/s)
Visibility:10 or more sm (16+ km)
Ceiling:at least 12,000 feet AGL
Clouds:sky clear below 12,000 feet AGL
QC Flag:automated observation with no human augmentation
Text:KEDU 012355Z AUTO 19009KT 10SM CLR 27/13 A2976 RMK AO1
Temperature: 27.0°C ( 81°F)
Dewpoint: 13.0°C ( 55°F) [RH = 42%]
Pressure (altimeter):29.76 inches Hg (1007.9 mb)
Winds:from the S (190 degrees) at 10 MPH (9 knots; 4.6 m/s)
Visibility:10 or more sm (16+ km)
Ceiling:at least 12,000 feet AGL
Clouds:sky clear below 12,000 feet AGL
QC Flag:automated observation with no human augmentation
Text:KEDU 012335Z AUTO 20007KT 10SM CLR 28/13 A2976 RMK AO1
Temperature: 28.0°C ( 82°F)
Dewpoint: 13.0°C ( 55°F) [RH = 40%]
Pressure (altimeter):29.76 inches Hg (1007.9 mb)
Winds:from the SSW (200 degrees) at 8 MPH (7 knots; 3.6 m/s)
Visibility:10 or more sm (16+ km)
Ceiling:at least 12,000 feet AGL
Clouds:sky clear below 12,000 feet AGL
QC Flag:automated observation with no human augmentation
Text:KEDU 012315Z AUTO 19009KT 10SM CLR 28/13 A2976 RMK AO1
Temperature: 28.0°C ( 82°F)
Dewpoint: 13.0°C ( 55°F) [RH = 40%]
Pressure (altimeter):29.76 inches Hg (1007.9 mb)
Winds:from the S (190 degrees) at 10 MPH (9 knots; 4.6 m/s)
Visibility:10 or more sm (16+ km)
Ceiling:at least 12,000 feet AGL
Clouds:sky clear below 12,000 feet AGL
QC Flag:automated observation with no human augmentation
Text:KEDU 012255Z AUTO 18007KT 10SM CLR 28/12 A2977 RMK AO1
Temperature: 28.0°C ( 82°F)
Dewpoint: 12.0°C ( 54°F) [RH = 37%]
Pressure (altimeter):29.77 inches Hg (1008.2 mb)
Winds:from the S (180 degrees) at 8 MPH (7 knots; 3.6 m/s)
Visibility:10 or more sm (16+ km)
Ceiling:at least 12,000 feet AGL
Clouds:sky clear below 12,000 feet AGL
QC Flag:automated observation with no human augmentation
Text:KEDU 012235Z AUTO 19008KT 10SM CLR 28/12 A2977 RMK AO1
Temperature: 28.0°C ( 82°F)
Dewpoint: 12.0°C ( 54°F) [RH = 37%]
Pressure (altimeter):29.77 inches Hg (1008.2 mb)
Winds:from the S (190 degrees) at 9 MPH (8 knots; 4.1 m/s)
Visibility:10 or more sm (16+ km)
Ceiling:at least 12,000 feet AGL
Clouds:sky clear below 12,000 feet AGL
QC Flag:automated observation with no human augmentation
Text:KEDU 012215Z AUTO 17007KT 10SM CLR 28/13 A2977 RMK AO1
Temperature: 28.0°C ( 82°F)
Dewpoint: 13.0°C ( 55°F) [RH = 40%]
Pressure (altimeter):29.77 inches Hg (1008.2 mb)
Winds:from the S (170 degrees) at 8 MPH (7 knots; 3.6 m/s)
Visibility:10 or more sm (16+ km)
Ceiling:at least 12,000 feet AGL
Clouds:sky clear below 12,000 feet AGL
QC Flag:automated observation with no human augmentation
Text:KEDU 012155Z AUTO 20007KT 10SM CLR 28/13 A2977 RMK AO1
Temperature: 28.0°C ( 82°F)
Dewpoint: 13.0°C ( 55°F) [RH = 40%]
Pressure (altimeter):29.77 inches Hg (1008.2 mb)
Winds:from the SSW (200 degrees) at 8 MPH (7 knots; 3.6 m/s)
Visibility:10 or more sm (16+ km)
Ceiling:at least 12,000 feet AGL
Clouds:sky clear below 12,000 feet AGL
QC Flag:automated observation with no human augmentation
Text:KEDU 012135Z AUTO 18008KT 10SM CLR 28/13 A2978 RMK AO1
Temperature: 28.0°C ( 82°F)
Dewpoint: 13.0°C ( 55°F) [RH = 40%]
Pressure (altimeter):29.78 inches Hg (1008.5 mb)
Winds:from the S (180 degrees) at 9 MPH (8 knots; 4.1 m/s)
Visibility:10 or more sm (16+ km)
Ceiling:at least 12,000 feet AGL
Clouds:sky clear below 12,000 feet AGL
QC Flag:automated observation with no human augmentation
Text:KEDU 012115Z AUTO 21004KT 10SM CLR 28/13 A2978 RMK AO1
Temperature: 28.0°C ( 82°F)
Dewpoint: 13.0°C ( 55°F) [RH = 40%]
Pressure (altimeter):29.78 inches Hg (1008.5 mb)
Winds:from the SSW (210 degrees) at 5 MPH (4 knots; 2.1 m/s)
Visibility:10 or more sm (16+ km)
Ceiling:at least 12,000 feet AGL
Clouds:sky clear below 12,000 feet AGL
QC Flag:automated observation with no human augmentation
Text:KEDU 012055Z AUTO 21007KT 10SM CLR 29/12 A2978 RMK AO1
Temperature: 29.0°C ( 84°F)
Dewpoint: 12.0°C ( 54°F) [RH = 35%]
Pressure (altimeter):29.78 inches Hg (1008.5 mb)
Winds:from the SSW (210 degrees) at 8 MPH (7 knots; 3.6 m/s)
Visibility:10 or more sm (16+ km)
Ceiling:at least 12,000 feet AGL
Clouds:sky clear below 12,000 feet AGL
QC Flag:automated observation with no human augmentation
Text:KEDU 012035Z AUTO 25003KT 10SM CLR 28/12 A2979 RMK AO1
Temperature: 28.0°C ( 82°F)
Dewpoint: 12.0°C ( 54°F) [RH = 37%]
Pressure (altimeter):29.79 inches Hg (1008.9 mb)
Winds:from the WSW (250 degrees) at 3 MPH (3 knots; 1.5 m/s)
Visibility:10 or more sm (16+ km)
Ceiling:at least 12,000 feet AGL
Clouds:sky clear below 12,000 feet AGL
QC Flag:automated observation with no human augmentation
Text:KEDU 012015Z AUTO 00000KT 10SM CLR 28/12 A2979 RMK AO1
Temperature: 28.0°C ( 82°F)
Dewpoint: 12.0°C ( 54°F) [RH = 37%]
Pressure (altimeter):29.79 inches Hg (1008.9 mb)
Winds:calm
Visibility:10 or more sm (16+ km)
Ceiling:at least 12,000 feet AGL
Clouds:sky clear below 12,000 feet AGL
QC Flag:automated observation with no human augmentation
Text:KEDU 011955Z AUTO 00000KT 10SM CLR 27/13 A2980 RMK AO1
Temperature: 27.0°C ( 81°F)
Dewpoint: 13.0°C ( 55°F) [RH = 42%]
Pressure (altimeter):29.80 inches Hg (1009.2 mb)
Winds:calm
Visibility:10 or more sm (16+ km)
Ceiling:at least 12,000 feet AGL
Clouds:sky clear below 12,000 feet AGL
QC Flag:automated observation with no human augmentation
Text:KEDU 011935Z AUTO 00000KT 10SM CLR 26/13 A2981 RMK AO1
Temperature: 26.0°C ( 79°F)
Dewpoint: 13.0°C ( 55°F) [RH = 45%]
Pressure (altimeter):29.81 inches Hg (1009.6 mb)
Winds:calm
Visibility:10 or more sm (16+ km)
Ceiling:at least 12,000 feet AGL
Clouds:sky clear below 12,000 feet AGL
QC Flag:automated observation with no human augmentation
Text:KEDU 011915Z AUTO 00000KT 10SM CLR 25/12 A2981 RMK AO1
Temperature: 25.0°C ( 77°F)
Dewpoint: 12.0°C ( 54°F) [RH = 44%]
Pressure (altimeter):29.81 inches Hg (1009.6 mb)
Winds:calm
Visibility:10 or more sm (16+ km)
Ceiling:at least 12,000 feet AGL
Clouds:sky clear below 12,000 feet AGL
QC Flag:automated observation with no human augmentation
Text:KEDU 011855Z AUTO 27003KT 10SM CLR 24/12 A2981 RMK AO1
Temperature: 24.0°C ( 75°F)
Dewpoint: 12.0°C ( 54°F) [RH = 47%]
Pressure (altimeter):29.81 inches Hg (1009.6 mb)
Winds:from the W (270 degrees) at 3 MPH (3 knots; 1.5 m/s)
Visibility:10 or more sm (16+ km)
Ceiling:at least 12,000 feet AGL
Clouds:sky clear below 12,000 feet AGL
QC Flag:automated observation with no human augmentation
Text:KEDU 011835Z AUTO 00000KT 10SM CLR 24/12 A2981 RMK AO1
Temperature: 24.0°C ( 75°F)
Dewpoint: 12.0°C ( 54°F) [RH = 47%]
Pressure (altimeter):29.81 inches Hg (1009.6 mb)
Winds:calm
Visibility:10 or more sm (16+ km)
Ceiling:at least 12,000 feet AGL
Clouds:sky clear below 12,000 feet AGL
QC Flag:automated observation with no human augmentation
Text:KEDU 011815Z AUTO 01003KT 10SM CLR 23/12 A2982 RMK AO1
Temperature: 23.0°C ( 73°F)
Dewpoint: 12.0°C ( 54°F) [RH = 50%]
Pressure (altimeter):29.82 inches Hg (1009.9 mb)
Winds:from the N (10 degrees) at 3 MPH (3 knots; 1.5 m/s)
Visibility:10 or more sm (16+ km)
Ceiling:at least 12,000 feet AGL
Clouds:sky clear below 12,000 feet AGL
QC Flag:automated observation with no human augmentation
Text:KEDU 011755Z AUTO 00000KT 10SM CLR 22/12 A2982 RMK AO1
Temperature: 22.0°C ( 72°F)
Dewpoint: 12.0°C ( 54°F) [RH = 53%]
Pressure (altimeter):29.82 inches Hg (1009.9 mb)
Winds:calm
Visibility:10 or more sm (16+ km)
Ceiling:at least 12,000 feet AGL
Clouds:sky clear below 12,000 feet AGL
QC Flag:automated observation with no human augmentation
Text:KEDU 011735Z AUTO 00000KT 10SM CLR 22/12 A2982 RMK AO1
Temperature: 22.0°C ( 72°F)
Dewpoint: 12.0°C ( 54°F) [RH = 53%]
Pressure (altimeter):29.82 inches Hg (1009.9 mb)
Winds:calm
Visibility:10 or more sm (16+ km)
Ceiling:at least 12,000 feet AGL
Clouds:sky clear below 12,000 feet AGL
QC Flag:automated observation with no human augmentation
Text:KEDU 011715Z AUTO 35003KT 10SM CLR 21/12 A2982 RMK AO1
Temperature: 21.0°C ( 70°F)
Dewpoint: 12.0°C ( 54°F) [RH = 56%]
Pressure (altimeter):29.82 inches Hg (1009.9 mb)
Winds:from the N (350 degrees) at 3 MPH (3 knots; 1.5 m/s)
Visibility:10 or more sm (16+ km)
Ceiling:at least 12,000 feet AGL
Clouds:sky clear below 12,000 feet AGL
QC Flag:automated observation with no human augmentation
Text:KEDU 011655Z AUTO 31003KT 10SM CLR 20/12 A2982 RMK AO1
Temperature: 20.0°C ( 68°F)
Dewpoint: 12.0°C ( 54°F) [RH = 60%]
Pressure (altimeter):29.82 inches Hg (1009.9 mb)
Winds:from the NW (310 degrees) at 3 MPH (3 knots; 1.5 m/s)
Visibility:10 or more sm (16+ km)
Ceiling:at least 12,000 feet AGL
Clouds:sky clear below 12,000 feet AGL
QC Flag:automated observation with no human augmentation
Text:KEDU 011635Z AUTO 00000KT 10SM CLR 19/12 A2982 RMK AO1
Temperature: 19.0°C ( 66°F)
Dewpoint: 12.0°C ( 54°F) [RH = 64%]
Pressure (altimeter):29.82 inches Hg (1009.9 mb)
Winds:calm
Visibility:10 or more sm (16+ km)
Ceiling:at least 12,000 feet AGL
Clouds:sky clear below 12,000 feet AGL
QC Flag:automated observation with no human augmentation
Text:KEDU 011615Z AUTO 00000KT 10SM CLR 18/13 A2981 RMK AO1
Temperature: 18.0°C ( 64°F)
Dewpoint: 13.0°C ( 55°F) [RH = 73%]
Pressure (altimeter):29.81 inches Hg (1009.6 mb)
Winds:calm
Visibility:10 or more sm (16+ km)
Ceiling:at least 12,000 feet AGL
Clouds:sky clear below 12,000 feet AGL
QC Flag:automated observation with no human augmentation
Text:KEDU 011555Z AUTO 22003KT 10SM CLR 17/12 A2981 RMK AO1
Temperature: 17.0°C ( 63°F)
Dewpoint: 12.0°C ( 54°F) [RH = 72%]
Pressure (altimeter):29.81 inches Hg (1009.6 mb)
Winds:from the SW (220 degrees) at 3 MPH (3 knots; 1.5 m/s)
Visibility:10 or more sm (16+ km)
Ceiling:at least 12,000 feet AGL
Clouds:sky clear below 12,000 feet AGL
QC Flag:automated observation with no human augmentation
Text:KEDU 011535Z AUTO 00000KT 10SM CLR 15/13 A2981 RMK AO1
Temperature: 15.0°C ( 59°F)
Dewpoint: 13.0°C ( 55°F) [RH = 88%]
Pressure (altimeter):29.81 inches Hg (1009.6 mb)
Winds:calm
Visibility:10 or more sm (16+ km)
Ceiling:at least 12,000 feet AGL
Clouds:sky clear below 12,000 feet AGL
QC Flag:automated observation with no human augmentation
Text:KEDU 011515Z AUTO 00000KT 10SM CLR 14/13 A2981 RMK AO1
Temperature: 14.0°C ( 57°F)
Dewpoint: 13.0°C ( 55°F) [RH = 94%]
Pressure (altimeter):29.81 inches Hg (1009.6 mb)
Winds:calm
Visibility:10 or more sm (16+ km)
Ceiling:at least 12,000 feet AGL
Clouds:sky clear below 12,000 feet AGL
QC Flag:automated observation with no human augmentation
Text:KEDU 011455Z AUTO 00000KT 10SM CLR 13/13 A2980 RMK AO1
Temperature: 13.0°C ( 55°F)
Dewpoint: 13.0°C ( 55°F) [RH = 100%]
Pressure (altimeter):29.80 inches Hg (1009.2 mb)
Winds:calm
Visibility:10 or more sm (16+ km)
Ceiling:at least 12,000 feet AGL
Clouds:sky clear below 12,000 feet AGL
QC Flag:automated observation with no human augmentation
Text:KEDU 011435Z AUTO 00000KT 10SM CLR 12/12 A2980 RMK AO1
Temperature: 12.0°C ( 54°F)
Dewpoint: 12.0°C ( 54°F) [RH = 100%]
Pressure (altimeter):29.80 inches Hg (1009.2 mb)
Winds:calm
Visibility:10 or more sm (16+ km)
Ceiling:at least 12,000 feet AGL
Clouds:sky clear below 12,000 feet AGL
QC Flag:automated observation with no human augmentation
Text:KEDU 011415Z AUTO 00000KT 10SM CLR 12/12 A2979 RMK AO1
Temperature: 12.0°C ( 54°F)
Dewpoint: 12.0°C ( 54°F) [RH = 100%]
Pressure (altimeter):29.79 inches Hg (1008.9 mb)
Winds:calm
Visibility:10 or more sm (16+ km)
Ceiling:at least 12,000 feet AGL
Clouds:sky clear below 12,000 feet AGL
QC Flag:automated observation with no human augmentation
Text:KEDU 011355Z AUTO 00000KT 10SM CLR 12/12 A2979 RMK AO1
Temperature: 12.0°C ( 54°F)
Dewpoint: 12.0°C ( 54°F) [RH = 100%]
Pressure (altimeter):29.79 inches Hg (1008.9 mb)
Winds:calm
Visibility:10 or more sm (16+ km)
Ceiling:at least 12,000 feet AGL
Clouds:sky clear below 12,000 feet AGL
QC Flag:automated observation with no human augmentation
Text:KEDU 011335Z AUTO 00000KT 10SM CLR 13/12 A2979 RMK AO1
Temperature: 13.0°C ( 55°F)
Dewpoint: 12.0°C ( 54°F) [RH = 94%]
Pressure (altimeter):29.79 inches Hg (1008.9 mb)
Winds:calm
Visibility:10 or more sm (16+ km)
Ceiling:at least 12,000 feet AGL
Clouds:sky clear below 12,000 feet AGL
QC Flag:automated observation with no human augmentation
Text:KEDU 011315Z AUTO 00000KT 10SM CLR 12/11 A2978 RMK AO1
Temperature: 12.0°C ( 54°F)
Dewpoint: 11.0°C ( 52°F) [RH = 94%]
Pressure (altimeter):29.78 inches Hg (1008.5 mb)
Winds:calm
Visibility:10 or more sm (16+ km)
Ceiling:at least 12,000 feet AGL
Clouds:sky clear below 12,000 feet AGL
QC Flag:automated observation with no human augmentation
Text:KEDU 011255Z AUTO 00000KT 10SM CLR 13/11 A2978 RMK AO1
Temperature: 13.0°C ( 55°F)
Dewpoint: 11.0°C ( 52°F) [RH = 88%]
Pressure (altimeter):29.78 inches Hg (1008.5 mb)
Winds:calm
Visibility:10 or more sm (16+ km)
Ceiling:at least 12,000 feet AGL
Clouds:sky clear below 12,000 feet AGL
QC Flag:automated observation with no human augmentation
Text:KEDU 011235Z AUTO 00000KT 10SM CLR 13/12 A2978 RMK AO1
Temperature: 13.0°C ( 55°F)
Dewpoint: 12.0°C ( 54°F) [RH = 94%]
Pressure (altimeter):29.78 inches Hg (1008.5 mb)
Winds:calm
Visibility:10 or more sm (16+ km)
Ceiling:at least 12,000 feet AGL
Clouds:sky clear below 12,000 feet AGL
QC Flag:automated observation with no human augmentation
Text:KEDU 011215Z AUTO 00000KT 10SM CLR 13/12 A2978 RMK AO1
Temperature: 13.0°C ( 55°F)
Dewpoint: 12.0°C ( 54°F) [RH = 94%]
Pressure (altimeter):29.78 inches Hg (1008.5 mb)
Winds:calm
Visibility:10 or more sm (16+ km)
Ceiling:at least 12,000 feet AGL
Clouds:sky clear below 12,000 feet AGL
QC Flag:automated observation with no human augmentation
Text:KEDU 011155Z AUTO 20003KT 10SM CLR 13/12 A2977 RMK AO1
Temperature: 13.0°C ( 55°F)
Dewpoint: 12.0°C ( 54°F) [RH = 94%]
Pressure (altimeter):29.77 inches Hg (1008.2 mb)
Winds:from the SSW (200 degrees) at 3 MPH (3 knots; 1.5 m/s)
Visibility:10 or more sm (16+ km)
Ceiling:at least 12,000 feet AGL
Clouds:sky clear below 12,000 feet AGL
QC Flag:automated observation with no human augmentation
Text:KEDU 011135Z AUTO 19003KT 10SM CLR 13/12 A2977 RMK AO1
Temperature: 13.0°C ( 55°F)
Dewpoint: 12.0°C ( 54°F) [RH = 94%]
Pressure (altimeter):29.77 inches Hg (1008.2 mb)
Winds:from the S (190 degrees) at 3 MPH (3 knots; 1.5 m/s)
Visibility:10 or more sm (16+ km)
Ceiling:at least 12,000 feet AGL
Clouds:sky clear below 12,000 feet AGL
QC Flag:automated observation with no human augmentation
Text:KEDU 011115Z AUTO 00000KT 10SM CLR 14/12 A2977 RMK AO1
Temperature: 14.0°C ( 57°F)
Dewpoint: 12.0°C ( 54°F) [RH = 88%]
Pressure (altimeter):29.77 inches Hg (1008.2 mb)
Winds:calm
Visibility:10 or more sm (16+ km)
Ceiling:at least 12,000 feet AGL
Clouds:sky clear below 12,000 feet AGL
QC Flag:automated observation with no human augmentation
Text:KEDU 011055Z AUTO 00000KT 10SM CLR 14/12 A2976 RMK AO1
Temperature: 14.0°C ( 57°F)
Dewpoint: 12.0°C ( 54°F) [RH = 88%]
Pressure (altimeter):29.76 inches Hg (1007.9 mb)
Winds:calm
Visibility:10 or more sm (16+ km)
Ceiling:at least 12,000 feet AGL
Clouds:sky clear below 12,000 feet AGL
QC Flag:automated observation with no human augmentation
Text:KEDU 011035Z AUTO 17003KT 10SM CLR 14/12 A2976 RMK AO1
Temperature: 14.0°C ( 57°F)
Dewpoint: 12.0°C ( 54°F) [RH = 88%]
Pressure (altimeter):29.76 inches Hg (1007.9 mb)
Winds:from the S (170 degrees) at 3 MPH (3 knots; 1.5 m/s)
Visibility:10 or more sm (16+ km)
Ceiling:at least 12,000 feet AGL
Clouds:sky clear below 12,000 feet AGL
QC Flag:automated observation with no human augmentation
Text:KEDU 011015Z AUTO 00000KT 10SM CLR 14/12 A2976 RMK AO1
Temperature: 14.0°C ( 57°F)
Dewpoint: 12.0°C ( 54°F) [RH = 88%]
Pressure (altimeter):29.76 inches Hg (1007.9 mb)
Winds:calm
Visibility:10 or more sm (16+ km)
Ceiling:at least 12,000 feet AGL
Clouds:sky clear below 12,000 feet AGL
QC Flag:automated observation with no human augmentation
Text:KEDU 010955Z AUTO 16003KT 10SM CLR 14/12 A2976 RMK AO1
Temperature: 14.0°C ( 57°F)
Dewpoint: 12.0°C ( 54°F) [RH = 88%]
Pressure (altimeter):29.76 inches Hg (1007.9 mb)
Winds:from the SSE (160 degrees) at 3 MPH (3 knots; 1.5 m/s)
Visibility:10 or more sm (16+ km)
Ceiling:at least 12,000 feet AGL
Clouds:sky clear below 12,000 feet AGL
QC Flag:automated observation with no human augmentation
Text:KEDU 010935Z AUTO 16003KT 10SM CLR 14/12 A2976 RMK AO1
Temperature: 14.0°C ( 57°F)
Dewpoint: 12.0°C ( 54°F) [RH = 88%]
Pressure (altimeter):29.76 inches Hg (1007.9 mb)
Winds:from the SSE (160 degrees) at 3 MPH (3 knots; 1.5 m/s)
Visibility:10 or more sm (16+ km)
Ceiling:at least 12,000 feet AGL
Clouds:sky clear below 12,000 feet AGL
QC Flag:automated observation with no human augmentation
Text:KEDU 010915Z AUTO 00000KT 10SM CLR 15/12 A2976 RMK AO1
Temperature: 15.0°C ( 59°F)
Dewpoint: 12.0°C ( 54°F) [RH = 82%]
Pressure (altimeter):29.76 inches Hg (1007.9 mb)
Winds:calm
Visibility:10 or more sm (16+ km)
Ceiling:at least 12,000 feet AGL
Clouds:sky clear below 12,000 feet AGL
QC Flag:automated observation with no human augmentation
Text:KEDU 010855Z AUTO 18003KT 10SM CLR 15/12 A2975 RMK AO1
Temperature: 15.0°C ( 59°F)
Dewpoint: 12.0°C ( 54°F) [RH = 82%]
Pressure (altimeter):29.75 inches Hg (1007.5 mb)
Winds:from the S (180 degrees) at 3 MPH (3 knots; 1.5 m/s)
Visibility:10 or more sm (16+ km)
Ceiling:at least 12,000 feet AGL
Clouds:sky clear below 12,000 feet AGL
QC Flag:automated observation with no human augmentation
Text:KEDU 010835Z AUTO 18005KT 10SM CLR 15/11 A2975 RMK AO1
Temperature: 15.0°C ( 59°F)
Dewpoint: 11.0°C ( 52°F) [RH = 77%]
Pressure (altimeter):29.75 inches Hg (1007.5 mb)
Winds:from the S (180 degrees) at 6 MPH (5 knots; 2.6 m/s)
Visibility:10 or more sm (16+ km)
Ceiling:at least 12,000 feet AGL
Clouds:sky clear below 12,000 feet AGL
QC Flag:automated observation with no human augmentation
Text:KEDU 010815Z AUTO 19003KT 10SM CLR 15/12 A2975 RMK AO1
Temperature: 15.0°C ( 59°F)
Dewpoint: 12.0°C ( 54°F) [RH = 82%]
Pressure (altimeter):29.75 inches Hg (1007.5 mb)
Winds:from the S (190 degrees) at 3 MPH (3 knots; 1.5 m/s)
Visibility:10 or more sm (16+ km)
Ceiling:at least 12,000 feet AGL
Clouds:sky clear below 12,000 feet AGL
QC Flag:automated observation with no human augmentation
Text:KEDU 010755Z AUTO 18004KT 10SM CLR 15/12 A2975 RMK AO1
Temperature: 15.0°C ( 59°F)
Dewpoint: 12.0°C ( 54°F) [RH = 82%]
Pressure (altimeter):29.75 inches Hg (1007.5 mb)
Winds:from the S (180 degrees) at 5 MPH (4 knots; 2.1 m/s)
Visibility:10 or more sm (16+ km)
Ceiling:at least 12,000 feet AGL
Clouds:sky clear below 12,000 feet AGL
QC Flag:automated observation with no human augmentation